sensor_id;sensor_type;location;lat;lon;timestamp;P1;durP1;ratioP1;P2;durP2;ratioP2
946;SDS011;460;48.734;9.152;2023-02-23T00:01:39;15.90;;;5.57;;
946;SDS011;460;48.734;9.152;2023-02-23T00:04:07;5.20;;;4.40;;
946;SDS011;460;48.734;9.152;2023-02-23T00:06:34;8.00;;;5.70;;
946;SDS011;460;48.734;9.152;2023-02-23T00:09:02;6.67;;;4.80;;
946;SDS011;460;48.734;9.152;2023-02-23T00:11:36;7.03;;;6.27;;
946;SDS011;460;48.734;9.152;2023-02-23T00:14:04;9.03;;;6.27;;
946;SDS011;460;48.734;9.152;2023-02-23T00:16:32;8.50;;;6.03;;
946;SDS011;460;48.734;9.152;2023-02-23T00:18:59;10.37;;;6.47;;
946;SDS011;460;48.734;9.152;2023-02-23T00:21:27;8.10;;;6.67;;
946;SDS011;460;48.734;9.152;2023-02-23T00:23:57;9.30;;;5.13;;
946;SDS011;460;48.734;9.152;2023-02-23T00:26:27;6.20;;;5.23;;
946;SDS011;460;48.734;9.152;2023-02-23T00:28:56;7.93;;;6.13;;
946;SDS011;460;48.734;9.152;2023-02-23T00:31:25;9.97;;;7.00;;
946;SDS011;460;48.734;9.152;2023-02-23T00:33:52;6.80;;;6.00;;
946;SDS011;460;48.734;9.152;2023-02-23T00:36:21;11.50;;;6.73;;
946;SDS011;460;48.734;9.152;2023-02-23T00:38:51;10.47;;;7.20;;
946;SDS011;460;48.734;9.152;2023-02-23T00:41:19;9.33;;;4.87;;
946;SDS011;460;48.734;9.152;2023-02-23T00:43:52;12.90;;;6.50;;
946;SDS011;460;48.734;9.152;2023-02-23T00:46:20;8.67;;;5.50;;
946;SDS011;460;48.734;9.152;2023-02-23T00:48:50;9.33;;;6.33;;
946;SDS011;460;48.734;9.152;2023-02-23T00:51:17;10.80;;;5.27;;
946;SDS011;460;48.734;9.152;2023-02-23T00:53:44;11.00;;;6.80;;
946;SDS011;460;48.734;9.152;2023-02-23T00:56:12;12.83;;;7.00;;
946;SDS011;460;48.734;9.152;2023-02-23T00:58:39;15.17;;;6.70;;
946;SDS011;460;48.734;9.152;2023-02-23T01:01:07;9.53;;;7.03;;
946;SDS011;460;48.734;9.152;2023-02-23T01:03:35;16.33;;;7.03;;
946;SDS011;460;48.734;9.152;2023-02-23T01:06:05;8.47;;;5.80;;
946;SDS011;460;48.734;9.152;2023-02-23T01:08:34;7.50;;;5.97;;
946;SDS011;460;48.734;9.152;2023-02-23T01:11:04;6.50;;;5.87;;
946;SDS011;460;48.734;9.152;2023-02-23T01:13:33;11.17;;;6.67;;
946;SDS011;460;48.734;9.152;2023-02-23T01:16:02;7.67;;;6.00;;
946;SDS011;460;48.734;9.152;2023-02-23T01:18:29;12.90;;;6.77;;
946;SDS011;460;48.734;9.152;2023-02-23T01:20:56;6.83;;;4.93;;
946;SDS011;460;48.734;9.152;2023-02-23T01:23:24;8.93;;;6.07;;
946;SDS011;460;48.734;9.152;2023-02-23T01:25:51;9.83;;;5.47;;
946;SDS011;460;48.734;9.152;2023-02-23T01:28:18;5.77;;;5.20;;
946;SDS011;460;48.734;9.152;2023-02-23T01:30:45;9.47;;;8.60;;
946;SDS011;460;48.734;9.152;2023-02-23T01:33:11;14.93;;;6.93;;
946;SDS011;460;48.734;9.152;2023-02-23T01:35:38;6.80;;;6.13;;
946;SDS011;460;48.734;9.152;2023-02-23T01:38:05;11.60;;;7.80;;
946;SDS011;460;48.734;9.152;2023-02-23T01:40:33;10.40;;;6.60;;
946;SDS011;460;48.734;9.152;2023-02-23T01:43:09;6.00;;;4.93;;
946;SDS011;460;48.734;9.152;2023-02-23T01:45:39;9.90;;;7.20;;
946;SDS011;460;48.734;9.152;2023-02-23T01:48:07;6.40;;;5.80;;
946;SDS011;460;48.734;9.152;2023-02-23T01:50:47;7.00;;;4.73;;
946;SDS011;460;48.734;9.152;2023-02-23T01:53:17;12.77;;;8.33;;
946;SDS011;460;48.734;9.152;2023-02-23T01:55:47;11.57;;;6.80;;
946;SDS011;460;48.734;9.152;2023-02-23T01:58:17;8.40;;;6.07;;
946;SDS011;460;48.734;9.152;2023-02-23T02:00:46;9.07;;;5.50;;
946;SDS011;460;48.734;9.152;2023-02-23T02:03:18;10.70;;;7.83;;
946;SDS011;460;48.734;9.152;2023-02-23T02:05:51;17.70;;;7.83;;
946;SDS011;460;48.734;9.152;2023-02-23T02:08:20;8.47;;;7.53;;
946;SDS011;460;48.734;9.152;2023-02-23T02:10:51;9.60;;;7.77;;
946;SDS011;460;48.734;9.152;2023-02-23T02:13:20;8.53;;;5.37;;
946;SDS011;460;48.734;9.152;2023-02-23T02:16:16;9.07;;;5.47;;
946;SDS011;460;48.734;9.152;2023-02-23T02:19:04;9.83;;;6.67;;
946;SDS011;460;48.734;9.152;2023-02-23T02:22:00;10.17;;;6.67;;
946;SDS011;460;48.734;9.152;2023-02-23T02:28:05;10.63;;;6.90;;
946;SDS011;460;48.734;9.152;2023-02-23T02:30:58;7.50;;;4.77;;
946;SDS011;460;48.734;9.152;2023-02-23T02:33:55;9.27;;;5.57;;
946;SDS011;460;48.734;9.152;2023-02-23T02:36:57;10.30;;;5.60;;
946;SDS011;460;48.734;9.152;2023-02-23T02:39:56;11.33;;;5.57;;
946;SDS011;460;48.734;9.152;2023-02-23T02:45:38;8.60;;;4.97;;
946;SDS011;460;48.734;9.152;2023-02-23T02:48:14;5.43;;;4.90;;
946;SDS011;460;48.734;9.152;2023-02-23T02:50:48;5.50;;;3.83;;
946;SDS011;460;48.734;9.152;2023-02-23T02:53:24;4.20;;;3.87;;
946;SDS011;460;48.734;9.152;2023-02-23T02:55:59;6.90;;;5.10;;
946;SDS011;460;48.734;9.152;2023-02-23T02:58:30;5.73;;;3.70;;
946;SDS011;460;48.734;9.152;2023-02-23T03:01:04;9.17;;;5.23;;
946;SDS011;460;48.734;9.152;2023-02-23T03:03:50;3.90;;;3.60;;
946;SDS011;460;48.734;9.152;2023-02-23T03:06:36;6.83;;;4.43;;
946;SDS011;460;48.734;9.152;2023-02-23T03:09:33;7.13;;;3.57;;
946;SDS011;460;48.734;9.152;2023-02-23T03:12:25;3.20;;;3.00;;
946;SDS011;460;48.734;9.152;2023-02-23T03:15:20;5.03;;;3.83;;
946;SDS011;460;48.734;9.152;2023-02-23T03:18:22;7.70;;;4.70;;
946;SDS011;460;48.734;9.152;2023-02-23T03:21:21;4.53;;;4.13;;
946;SDS011;460;48.734;9.152;2023-02-23T03:24:10;7.10;;;4.83;;
946;SDS011;460;48.734;9.152;2023-02-23T03:27:03;7.30;;;5.10;;
946;SDS011;460;48.734;9.152;2023-02-23T03:29:57;11.63;;;6.27;;
946;SDS011;460;48.734;9.152;2023-02-23T03:32:47;4.23;;;2.90;;
946;SDS011;460;48.734;9.152;2023-02-23T03:35:38;4.53;;;3.60;;
946;SDS011;460;48.734;9.152;2023-02-23T03:38:31;7.90;;;4.60;;
946;SDS011;460;48.734;9.152;2023-02-23T03:41:22;12.37;;;4.83;;
946;SDS011;460;48.734;9.152;2023-02-23T03:44:12;3.23;;;2.93;;
946;SDS011;460;48.734;9.152;2023-02-23T03:47:01;6.33;;;4.00;;
946;SDS011;460;48.734;9.152;2023-02-23T03:49:49;5.77;;;4.27;;
946;SDS011;460;48.734;9.152;2023-02-23T03:52:38;7.37;;;5.13;;
946;SDS011;460;48.734;9.152;2023-02-23T03:55:29;13.60;;;4.37;;
946;SDS011;460;48.734;9.152;2023-02-23T03:58:18;3.97;;;3.20;;
946;SDS011;460;48.734;9.152;2023-02-23T04:01:10;6.80;;;5.13;;
946;SDS011;460;48.734;9.152;2023-02-23T04:03:57;6.30;;;3.37;;
946;SDS011;460;48.734;9.152;2023-02-23T04:06:44;4.30;;;3.90;;
946;SDS011;460;48.734;9.152;2023-02-23T04:09:30;6.93;;;4.57;;
946;SDS011;460;48.734;9.152;2023-02-23T04:12:16;7.17;;;4.27;;
946;SDS011;460;48.734;9.152;2023-02-23T04:15:06;5.43;;;4.57;;
946;SDS011;460;48.734;9.152;2023-02-23T04:17:36;6.57;;;5.60;;
946;SDS011;460;48.734;9.152;2023-02-23T04:20:04;4.73;;;4.33;;
946;SDS011;460;48.734;9.152;2023-02-23T04:22:31;5.40;;;4.53;;
946;SDS011;460;48.734;9.152;2023-02-23T04:24:59;6.17;;;3.63;;
946;SDS011;460;48.734;9.152;2023-02-23T04:27:26;9.53;;;5.33;;
946;SDS011;460;48.734;9.152;2023-02-23T04:29:53;4.93;;;4.43;;
946;SDS011;460;48.734;9.152;2023-02-23T04:32:19;9.80;;;4.80;;
946;SDS011;460;48.734;9.152;2023-02-23T04:34:47;5.73;;;5.17;;
946;SDS011;460;48.734;9.152;2023-02-23T04:37:14;4.60;;;4.07;;
946;SDS011;460;48.734;9.152;2023-02-23T04:39:41;5.23;;;4.17;;
946;SDS011;460;48.734;9.152;2023-02-23T04:42:12;4.40;;;3.80;;
946;SDS011;460;48.734;9.152;2023-02-23T04:44:39;4.70;;;3.80;;
946;SDS011;460;48.734;9.152;2023-02-23T04:47:06;8.63;;;4.43;;
946;SDS011;460;48.734;9.152;2023-02-23T04:49:33;4.50;;;3.60;;
946;SDS011;460;48.734;9.152;2023-02-23T04:52:01;8.73;;;5.20;;
946;SDS011;460;48.734;9.152;2023-02-23T04:54:27;7.13;;;3.93;;
946;SDS011;460;48.734;9.152;2023-02-23T04:56:54;4.93;;;3.90;;
946;SDS011;460;48.734;9.152;2023-02-23T04:59:21;8.17;;;4.87;;
946;SDS011;460;48.734;9.152;2023-02-23T05:01:48;6.70;;;4.20;;
946;SDS011;460;48.734;9.152;2023-02-23T05:04:15;6.33;;;4.33;;
946;SDS011;460;48.734;9.152;2023-02-23T05:06:42;7.10;;;5.40;;
946;SDS011;460;48.734;9.152;2023-02-23T05:09:10;6.80;;;4.37;;
946;SDS011;460;48.734;9.152;2023-02-23T05:11:37;7.40;;;5.03;;
946;SDS011;460;48.734;9.152;2023-02-23T05:14:03;4.30;;;3.80;;
946;SDS011;460;48.734;9.152;2023-02-23T05:16:30;6.83;;;4.30;;
946;SDS011;460;48.734;9.152;2023-02-23T05:18:57;6.60;;;5.87;;
946;SDS011;460;48.734;9.152;2023-02-23T05:21:25;9.80;;;5.17;;
946;SDS011;460;48.734;9.152;2023-02-23T05:23:52;6.13;;;4.97;;
946;SDS011;460;48.734;9.152;2023-02-23T05:26:20;4.03;;;3.23;;
946;SDS011;460;48.734;9.152;2023-02-23T05:28:47;3.97;;;3.60;;
946;SDS011;460;48.734;9.152;2023-02-23T05:31:14;4.53;;;3.73;;
946;SDS011;460;48.734;9.152;2023-02-23T05:33:41;5.30;;;3.47;;
946;SDS011;460;48.734;9.152;2023-02-23T05:36:10;8.60;;;4.13;;
946;SDS011;460;48.734;9.152;2023-02-23T05:38:37;5.70;;;4.90;;
946;SDS011;460;48.734;9.152;2023-02-23T05:41:05;10.67;;;4.57;;
946;SDS011;460;48.734;9.152;2023-02-23T05:43:33;9.10;;;4.67;;
946;SDS011;460;48.734;9.152;2023-02-23T05:46:00;8.60;;;4.97;;
946;SDS011;460;48.734;9.152;2023-02-23T05:48:31;4.70;;;4.30;;
946;SDS011;460;48.734;9.152;2023-02-23T05:51:00;3.90;;;2.90;;
946;SDS011;460;48.734;9.152;2023-02-23T05:53:27;4.80;;;3.87;;
946;SDS011;460;48.734;9.152;2023-02-23T05:55:54;4.50;;;4.03;;
946;SDS011;460;48.734;9.152;2023-02-23T05:58:20;6.57;;;3.40;;
946;SDS011;460;48.734;9.152;2023-02-23T06:00:49;5.87;;;3.10;;
946;SDS011;460;48.734;9.152;2023-02-23T06:03:15;4.90;;;3.60;;
946;SDS011;460;48.734;9.152;2023-02-23T06:05:47;5.67;;;3.67;;
946;SDS011;460;48.734;9.152;2023-02-23T06:08:15;4.40;;;3.77;;
946;SDS011;460;48.734;9.152;2023-02-23T06:10:41;5.20;;;3.37;;
946;SDS011;460;48.734;9.152;2023-02-23T06:13:09;5.60;;;3.97;;
946;SDS011;460;48.734;9.152;2023-02-23T06:15:36;5.37;;;3.77;;
946;SDS011;460;48.734;9.152;2023-02-23T06:18:05;5.60;;;4.03;;
946;SDS011;460;48.734;9.152;2023-02-23T06:20:33;3.77;;;2.97;;
946;SDS011;460;48.734;9.152;2023-02-23T06:22:59;3.10;;;2.90;;
946;SDS011;460;48.734;9.152;2023-02-23T06:25:26;4.40;;;2.50;;
946;SDS011;460;48.734;9.152;2023-02-23T06:27:53;7.60;;;5.03;;
946;SDS011;460;48.734;9.152;2023-02-23T06:30:20;5.27;;;3.83;;
946;SDS011;460;48.734;9.152;2023-02-23T06:32:47;4.60;;;3.83;;
946;SDS011;460;48.734;9.152;2023-02-23T06:35:15;5.93;;;5.33;;
946;SDS011;460;48.734;9.152;2023-02-23T06:37:42;5.40;;;4.77;;
946;SDS011;460;48.734;9.152;2023-02-23T06:40:09;9.30;;;5.50;;
946;SDS011;460;48.734;9.152;2023-02-23T06:42:36;5.63;;;4.43;;
946;SDS011;460;48.734;9.152;2023-02-23T06:45:03;4.40;;;3.90;;
946;SDS011;460;48.734;9.152;2023-02-23T06:47:31;4.60;;;3.50;;
946;SDS011;460;48.734;9.152;2023-02-23T06:49:58;3.43;;;3.13;;
946;SDS011;460;48.734;9.152;2023-02-23T06:52:27;7.13;;;3.87;;
946;SDS011;460;48.734;9.152;2023-02-23T06:54:54;3.93;;;3.37;;
946;SDS011;460;48.734;9.152;2023-02-23T06:57:21;8.90;;;3.87;;
946;SDS011;460;48.734;9.152;2023-02-23T06:59:47;11.50;;;4.70;;
946;SDS011;460;48.734;9.152;2023-02-23T07:02:14;5.00;;;4.10;;
946;SDS011;460;48.734;9.152;2023-02-23T07:04:41;4.20;;;3.33;;
946;SDS011;460;48.734;9.152;2023-02-23T07:07:08;4.97;;;4.43;;
946;SDS011;460;48.734;9.152;2023-02-23T07:09:39;4.47;;;2.90;;
946;SDS011;460;48.734;9.152;2023-02-23T07:12:07;5.53;;;3.60;;
946;SDS011;460;48.734;9.152;2023-02-23T07:14:33;3.33;;;2.90;;
946;SDS011;460;48.734;9.152;2023-02-23T07:17:01;3.67;;;3.37;;
946;SDS011;460;48.734;9.152;2023-02-23T07:19:28;4.70;;;4.30;;
946;SDS011;460;48.734;9.152;2023-02-23T07:21:55;3.60;;;2.47;;
946;SDS011;460;48.734;9.152;2023-02-23T07:24:22;3.37;;;3.07;;
946;SDS011;460;48.734;9.152;2023-02-23T07:26:50;5.70;;;2.93;;
946;SDS011;460;48.734;9.152;2023-02-23T07:29:17;5.40;;;3.23;;
946;SDS011;460;48.734;9.152;2023-02-23T07:31:44;9.13;;;5.80;;
946;SDS011;460;48.734;9.152;2023-02-23T07:34:13;7.07;;;3.60;;
946;SDS011;460;48.734;9.152;2023-02-23T07:36:41;4.57;;;4.13;;
946;SDS011;460;48.734;9.152;2023-02-23T07:39:08;4.67;;;3.10;;
946;SDS011;460;48.734;9.152;2023-02-23T07:41:34;7.00;;;5.50;;
946;SDS011;460;48.734;9.152;2023-02-23T07:44:03;3.97;;;3.67;;
946;SDS011;460;48.734;9.152;2023-02-23T07:46:30;10.40;;;3.77;;
946;SDS011;460;48.734;9.152;2023-02-23T07:48:57;5.17;;;3.87;;
946;SDS011;460;48.734;9.152;2023-02-23T07:51:23;6.33;;;4.80;;
946;SDS011;460;48.734;9.152;2023-02-23T07:53:50;6.97;;;3.73;;
946;SDS011;460;48.734;9.152;2023-02-23T07:56:19;3.17;;;2.80;;
946;SDS011;460;48.734;9.152;2023-02-23T07:58:45;5.70;;;4.33;;
946;SDS011;460;48.734;9.152;2023-02-23T08:01:14;4.70;;;3.60;;
946;SDS011;460;48.734;9.152;2023-02-23T08:03:40;2.47;;;2.30;;
946;SDS011;460;48.734;9.152;2023-02-23T08:06:13;8.17;;;3.87;;
946;SDS011;460;48.734;9.152;2023-02-23T08:08:40;5.83;;;4.20;;
946;SDS011;460;48.734;9.152;2023-02-23T08:11:07;2.60;;;2.40;;
946;SDS011;460;48.734;9.152;2023-02-23T08:13:35;3.57;;;2.73;;
946;SDS011;460;48.734;9.152;2023-02-23T08:16:02;6.80;;;4.40;;
946;SDS011;460;48.734;9.152;2023-02-23T08:18:31;2.27;;;2.07;;
946;SDS011;460;48.734;9.152;2023-02-23T08:20:58;5.23;;;2.47;;
946;SDS011;460;48.734;9.152;2023-02-23T08:23:25;3.13;;;2.73;;
946;SDS011;460;48.734;9.152;2023-02-23T08:25:54;3.93;;;3.03;;
946;SDS011;460;48.734;9.152;2023-02-23T08:28:21;3.87;;;3.43;;
946;SDS011;460;48.734;9.152;2023-02-23T08:30:49;3.47;;;2.77;;
946;SDS011;460;48.734;9.152;2023-02-23T08:33:16;3.80;;;2.60;;
946;SDS011;460;48.734;9.152;2023-02-23T08:35:44;2.43;;;2.23;;
946;SDS011;460;48.734;9.152;2023-02-23T08:38:11;3.60;;;2.83;;
946;SDS011;460;48.734;9.152;2023-02-23T08:40:39;3.17;;;2.73;;
946;SDS011;460;48.734;9.152;2023-02-23T08:43:07;4.37;;;2.80;;
946;SDS011;460;48.734;9.152;2023-02-23T08:45:33;5.73;;;2.73;;
946;SDS011;460;48.734;9.152;2023-02-23T08:48:02;3.80;;;2.57;;
946;SDS011;460;48.734;9.152;2023-02-23T08:50:29;4.63;;;2.70;;
946;SDS011;460;48.734;9.152;2023-02-23T08:52:58;4.53;;;3.63;;
946;SDS011;460;48.734;9.152;2023-02-23T08:55:24;7.50;;;3.23;;
946;SDS011;460;48.734;9.152;2023-02-23T08:57:51;2.50;;;1.90;;
946;SDS011;460;48.734;9.152;2023-02-23T09:00:18;2.60;;;2.23;;
946;SDS011;460;48.734;9.152;2023-02-23T09:02:46;5.70;;;3.43;;
946;SDS011;460;48.734;9.152;2023-02-23T09:05:13;2.77;;;2.57;;
946;SDS011;460;48.734;9.152;2023-02-23T09:07:40;2.83;;;2.40;;
946;SDS011;460;48.734;9.152;2023-02-23T09:10:11;3.73;;;2.13;;
946;SDS011;460;48.734;9.152;2023-02-23T09:12:38;5.13;;;3.17;;
946;SDS011;460;48.734;9.152;2023-02-23T09:15:05;5.33;;;3.23;;
946;SDS011;460;48.734;9.152;2023-02-23T09:17:33;6.70;;;3.30;;
946;SDS011;460;48.734;9.152;2023-02-23T09:20:00;3.00;;;2.83;;
946;SDS011;460;48.734;9.152;2023-02-23T09:22:27;2.10;;;1.83;;
946;SDS011;460;48.734;9.152;2023-02-23T09:24:54;3.23;;;2.80;;
946;SDS011;460;48.734;9.152;2023-02-23T09:27:22;2.60;;;2.40;;
946;SDS011;460;48.734;9.152;2023-02-23T09:29:48;3.43;;;2.47;;
946;SDS011;460;48.734;9.152;2023-02-23T09:32:15;3.50;;;3.20;;
946;SDS011;460;48.734;9.152;2023-02-23T09:34:42;3.53;;;2.17;;
946;SDS011;460;48.734;9.152;2023-02-23T09:37:09;3.93;;;3.20;;
946;SDS011;460;48.734;9.152;2023-02-23T09:39:35;2.43;;;2.20;;
946;SDS011;460;48.734;9.152;2023-02-23T09:42:05;2.07;;;1.90;;
946;SDS011;460;48.734;9.152;2023-02-23T09:44:59;6.60;;;2.20;;
946;SDS011;460;48.734;9.152;2023-02-23T09:47:48;2.83;;;2.50;;
946;SDS011;460;48.734;9.152;2023-02-23T09:50:24;2.77;;;2.57;;
946;SDS011;460;48.734;9.152;2023-02-23T09:52:56;3.23;;;2.33;;
946;SDS011;460;48.734;9.152;2023-02-23T09:55:25;2.93;;;2.53;;
946;SDS011;460;48.734;9.152;2023-02-23T09:57:53;1.63;;;1.53;;
946;SDS011;460;48.734;9.152;2023-02-23T10:00:24;1.67;;;1.57;;
946;SDS011;460;48.734;9.152;2023-02-23T10:03:05;2.90;;;2.60;;
946;SDS011;460;48.734;9.152;2023-02-23T10:05:39;3.03;;;1.90;;
946;SDS011;460;48.734;9.152;2023-02-23T10:08:13;2.63;;;2.23;;
946;SDS011;460;48.734;9.152;2023-02-23T10:10:48;2.17;;;1.97;;
946;SDS011;460;48.734;9.152;2023-02-23T10:13:23;1.90;;;0.90;;
946;SDS011;460;48.734;9.152;2023-02-23T10:16:05;1.50;;;1.40;;
946;SDS011;460;48.734;9.152;2023-02-23T10:18:39;2.50;;;1.47;;
946;SDS011;460;48.734;9.152;2023-02-23T10:21:13;2.03;;;1.23;;
946;SDS011;460;48.734;9.152;2023-02-23T10:23:44;2.20;;;1.07;;
946;SDS011;460;48.734;9.152;2023-02-23T10:26:14;7.00;;;2.20;;
946;SDS011;460;48.734;9.152;2023-02-23T10:28:44;2.50;;;1.67;;
946;SDS011;460;48.734;9.152;2023-02-23T10:31:18;1.93;;;1.80;;
946;SDS011;460;48.734;9.152;2023-02-23T10:33:52;3.33;;;1.53;;
946;SDS011;460;48.734;9.152;2023-02-23T10:36:27;1.80;;;1.70;;
946;SDS011;460;48.734;9.152;2023-02-23T10:38:58;2.67;;;1.93;;
946;SDS011;460;48.734;9.152;2023-02-23T10:41:25;1.97;;;1.77;;
946;SDS011;460;48.734;9.152;2023-02-23T10:43:52;2.83;;;1.63;;
946;SDS011;460;48.734;9.152;2023-02-23T10:46:21;1.70;;;1.40;;
946;SDS011;460;48.734;9.152;2023-02-23T10:48:52;1.90;;;1.40;;
946;SDS011;460;48.734;9.152;2023-02-23T10:51:24;3.83;;;1.57;;
946;SDS011;460;48.734;9.152;2023-02-23T10:53:55;2.60;;;1.20;;
946;SDS011;460;48.734;9.152;2023-02-23T10:56:21;3.73;;;1.80;;
946;SDS011;460;48.734;9.152;2023-02-23T10:58:49;1.23;;;0.83;;
946;SDS011;460;48.734;9.152;2023-02-23T11:01:32;1.53;;;1.43;;
946;SDS011;460;48.734;9.152;2023-02-23T11:04:11;1.60;;;1.30;;
946;SDS011;460;48.734;9.152;2023-02-23T11:06:41;1.20;;;0.90;;
946;SDS011;460;48.734;9.152;2023-02-23T11:09:24;1.13;;;1.03;;
946;SDS011;460;48.734;9.152;2023-02-23T11:11:54;0.80;;;0.80;;
946;SDS011;460;48.734;9.152;2023-02-23T11:14:24;2.20;;;1.10;;
946;SDS011;460;48.734;9.152;2023-02-23T11:16:54;1.73;;;1.63;;
946;SDS011;460;48.734;9.152;2023-02-23T11:19:23;1.40;;;0.83;;
946;SDS011;460;48.734;9.152;2023-02-23T11:21:54;1.20;;;0.97;;
946;SDS011;460;48.734;9.152;2023-02-23T11:24:21;1.50;;;1.13;;
946;SDS011;460;48.734;9.152;2023-02-23T11:26:50;1.23;;;1.07;;
946;SDS011;460;48.734;9.152;2023-02-23T11:29:24;1.83;;;1.60;;
946;SDS011;460;48.734;9.152;2023-02-23T11:31:58;1.57;;;1.37;;
946;SDS011;460;48.734;9.152;2023-02-23T11:34:30;1.07;;;0.83;;
946;SDS011;460;48.734;9.152;2023-02-23T11:37:00;1.13;;;0.93;;
946;SDS011;460;48.734;9.152;2023-02-23T11:39:29;3.37;;;1.13;;
946;SDS011;460;48.734;9.152;2023-02-23T11:42:03;1.80;;;1.70;;
946;SDS011;460;48.734;9.152;2023-02-23T11:44:38;1.33;;;0.93;;
946;SDS011;460;48.734;9.152;2023-02-23T11:47:11;2.40;;;1.13;;
946;SDS011;460;48.734;9.152;2023-02-23T11:49:42;1.23;;;0.97;;
946;SDS011;460;48.734;9.152;2023-02-23T11:52:11;1.37;;;1.27;;
946;SDS011;460;48.734;9.152;2023-02-23T11:54:42;1.53;;;0.83;;
946;SDS011;460;48.734;9.152;2023-02-23T11:57:18;2.53;;;1.80;;
946;SDS011;460;48.734;9.152;2023-02-23T11:59:47;1.57;;;1.20;;
946;SDS011;460;48.734;9.152;2023-02-23T12:02:21;0.90;;;0.90;;
946;SDS011;460;48.734;9.152;2023-02-23T12:04:50;1.57;;;1.40;;
946;SDS011;460;48.734;9.152;2023-02-23T12:07:27;1.20;;;1.10;;
946;SDS011;460;48.734;9.152;2023-02-23T12:10:06;2.80;;;2.60;;
946;SDS011;460;48.734;9.152;2023-02-23T12:12:43;1.37;;;1.27;;
946;SDS011;460;48.734;9.152;2023-02-23T12:15:21;3.23;;;3.03;;
946;SDS011;460;48.734;9.152;2023-02-23T12:17:56;6.83;;;1.37;;
946;SDS011;460;48.734;9.152;2023-02-23T12:20:27;2.50;;;1.20;;
946;SDS011;460;48.734;9.152;2023-02-23T12:22:57;3.90;;;1.47;;
946;SDS011;460;48.734;9.152;2023-02-23T12:25:29;2.67;;;1.20;;
946;SDS011;460;48.734;9.152;2023-02-23T12:28:01;1.77;;;1.67;;
946;SDS011;460;48.734;9.152;2023-02-23T12:30:37;3.90;;;2.13;;
946;SDS011;460;48.734;9.152;2023-02-23T12:33:10;2.50;;;2.30;;
946;SDS011;460;48.734;9.152;2023-02-23T12:35:43;3.93;;;2.97;;
946;SDS011;460;48.734;9.152;2023-02-23T12:38:16;4.50;;;2.63;;
946;SDS011;460;48.734;9.152;2023-02-23T12:40:51;3.57;;;2.73;;
946;SDS011;460;48.734;9.152;2023-02-23T12:43:24;2.90;;;2.10;;
946;SDS011;460;48.734;9.152;2023-02-23T12:45:58;3.43;;;3.03;;
946;SDS011;460;48.734;9.152;2023-02-23T12:48:34;4.20;;;3.60;;
946;SDS011;460;48.734;9.152;2023-02-23T12:51:11;5.17;;;2.60;;
946;SDS011;460;48.734;9.152;2023-02-23T12:53:45;6.77;;;3.27;;
946;SDS011;460;48.734;9.152;2023-02-23T12:56:16;2.73;;;2.37;;
946;SDS011;460;48.734;9.152;2023-02-23T12:58:58;5.10;;;3.63;;
946;SDS011;460;48.734;9.152;2023-02-23T13:01:38;6.10;;;3.10;;
946;SDS011;460;48.734;9.152;2023-02-23T13:04:20;4.93;;;3.30;;
946;SDS011;460;48.734;9.152;2023-02-23T13:07:00;5.70;;;2.50;;
946;SDS011;460;48.734;9.152;2023-02-23T13:09:41;4.53;;;3.80;;
946;SDS011;460;48.734;9.152;2023-02-23T13:12:13;4.57;;;2.10;;
946;SDS011;460;48.734;9.152;2023-02-23T13:14:54;5.07;;;2.27;;
946;SDS011;460;48.734;9.152;2023-02-23T13:17:31;5.70;;;2.50;;
946;SDS011;460;48.734;9.152;2023-02-23T13:20:06;4.50;;;2.70;;
946;SDS011;460;48.734;9.152;2023-02-23T13:22:41;2.60;;;2.40;;
946;SDS011;460;48.734;9.152;2023-02-23T13:25:18;3.33;;;2.33;;
946;SDS011;460;48.734;9.152;2023-02-23T13:27:54;2.10;;;1.83;;
946;SDS011;460;48.734;9.152;2023-02-23T13:30:24;2.57;;;2.20;;
946;SDS011;460;48.734;9.152;2023-02-23T13:32:56;1.80;;;1.70;;
946;SDS011;460;48.734;9.152;2023-02-23T13:35:35;2.53;;;2.33;;
946;SDS011;460;48.734;9.152;2023-02-23T13:38:04;3.60;;;1.97;;
946;SDS011;460;48.734;9.152;2023-02-23T13:40:39;3.90;;;2.47;;
946;SDS011;460;48.734;9.152;2023-02-23T13:43:12;3.67;;;2.40;;
946;SDS011;460;48.734;9.152;2023-02-23T13:45:51;7.23;;;2.83;;
946;SDS011;460;48.734;9.152;2023-02-23T13:48:29;3.07;;;2.17;;
946;SDS011;460;48.734;9.152;2023-02-23T13:51:13;2.70;;;2.27;;
946;SDS011;460;48.734;9.152;2023-02-23T13:53:46;3.13;;;1.63;;
946;SDS011;460;48.734;9.152;2023-02-23T13:56:26;3.10;;;1.80;;
946;SDS011;460;48.734;9.152;2023-02-23T13:58:57;3.03;;;2.83;;
946;SDS011;460;48.734;9.152;2023-02-23T14:01:26;4.10;;;3.00;;
946;SDS011;460;48.734;9.152;2023-02-23T14:03:56;3.10;;;1.37;;
946;SDS011;460;48.734;9.152;2023-02-23T14:06:26;1.77;;;1.67;;
946;SDS011;460;48.734;9.152;2023-02-23T14:08:56;3.07;;;2.77;;
946;SDS011;460;48.734;9.152;2023-02-23T14:11:29;3.20;;;2.20;;
946;SDS011;460;48.734;9.152;2023-02-23T14:14:02;2.23;;;1.80;;
946;SDS011;460;48.734;9.152;2023-02-23T14:16:29;3.97;;;2.23;;
946;SDS011;460;48.734;9.152;2023-02-23T14:19:09;4.53;;;2.73;;
946;SDS011;460;48.734;9.152;2023-02-23T14:21:57;3.73;;;2.80;;
946;SDS011;460;48.734;9.152;2023-02-23T14:24:26;4.17;;;3.87;;
946;SDS011;460;48.734;9.152;2023-02-23T14:32:39;13.10;;;3.83;;
946;SDS011;460;48.734;9.152;2023-02-23T14:35:34;5.63;;;3.17;;
946;SDS011;460;48.734;9.152;2023-02-23T14:38:09;3.93;;;3.00;;
946;SDS011;460;48.734;9.152;2023-02-23T14:40:51;3.20;;;2.83;;
946;SDS011;460;48.734;9.152;2023-02-23T14:43:41;3.17;;;2.97;;
946;SDS011;460;48.734;9.152;2023-02-23T14:46:10;3.23;;;2.30;;
946;SDS011;460;48.734;9.152;2023-02-23T14:48:43;3.60;;;2.87;;
946;SDS011;460;48.734;9.152;2023-02-23T14:51:23;2.93;;;2.43;;
946;SDS011;460;48.734;9.152;2023-02-23T14:53:57;8.67;;;2.93;;
946;SDS011;460;48.734;9.152;2023-02-23T14:56:24;4.23;;;2.83;;
946;SDS011;460;48.734;9.152;2023-02-23T14:58:51;2.20;;;2.10;;
946;SDS011;460;48.734;9.152;2023-02-23T15:01:34;4.83;;;2.20;;
946;SDS011;460;48.734;9.152;2023-02-23T15:04:06;3.23;;;2.90;;
946;SDS011;460;48.734;9.152;2023-02-23T15:06:37;3.33;;;2.07;;
946;SDS011;460;48.734;9.152;2023-02-23T15:09:06;3.40;;;3.10;;
946;SDS011;460;48.734;9.152;2023-02-23T15:11:33;1.77;;;1.57;;
946;SDS011;460;48.734;9.152;2023-02-23T15:14:01;3.80;;;2.27;;
946;SDS011;460;48.734;9.152;2023-02-23T15:16:29;2.70;;;1.83;;
946;SDS011;460;48.734;9.152;2023-02-23T15:18:59;3.50;;;1.53;;
946;SDS011;460;48.734;9.152;2023-02-23T15:21:27;1.20;;;1.10;;
946;SDS011;460;48.734;9.152;2023-02-23T15:24:02;1.77;;;0.83;;
946;SDS011;460;48.734;9.152;2023-02-23T15:26:32;5.63;;;2.90;;
946;SDS011;460;48.734;9.152;2023-02-23T15:29:10;1.83;;;1.00;;
946;SDS011;460;48.734;9.152;2023-02-23T15:31:39;0.70;;;0.70;;
946;SDS011;460;48.734;9.152;2023-02-23T15:34:15;1.40;;;0.90;;
946;SDS011;460;48.734;9.152;2023-02-23T15:36:44;1.30;;;1.20;;
946;SDS011;460;48.734;9.152;2023-02-23T15:39:15;3.70;;;1.50;;
946;SDS011;460;48.734;9.152;2023-02-23T15:41:44;6.83;;;0.87;;
946;SDS011;460;48.734;9.152;2023-02-23T15:44:15;2.57;;;1.27;;
946;SDS011;460;48.734;9.152;2023-02-23T15:46:48;1.17;;;1.07;;
946;SDS011;460;48.734;9.152;2023-02-23T15:49:17;1.33;;;1.27;;
946;SDS011;460;48.734;9.152;2023-02-23T15:51:46;2.20;;;2.00;;
946;SDS011;460;48.734;9.152;2023-02-23T15:54:18;0.80;;;0.80;;
946;SDS011;460;48.734;9.152;2023-02-23T15:56:48;3.33;;;3.13;;
946;SDS011;460;48.734;9.152;2023-02-23T15:59:21;4.43;;;1.60;;
946;SDS011;460;48.734;9.152;2023-02-23T16:01:52;1.33;;;1.23;;
946;SDS011;460;48.734;9.152;2023-02-23T16:04:29;2.70;;;2.50;;
946;SDS011;460;48.734;9.152;2023-02-23T16:07:08;1.77;;;1.50;;
946;SDS011;460;48.734;9.152;2023-02-23T16:09:47;1.30;;;1.20;;
946;SDS011;460;48.734;9.152;2023-02-23T16:12:17;2.63;;;1.83;;
946;SDS011;460;48.734;9.152;2023-02-23T16:14:47;3.83;;;2.10;;
946;SDS011;460;48.734;9.152;2023-02-23T16:17:23;1.93;;;1.60;;
946;SDS011;460;48.734;9.152;2023-02-23T16:19:52;1.90;;;1.27;;
946;SDS011;460;48.734;9.152;2023-02-23T16:22:21;4.80;;;1.70;;
946;SDS011;460;48.734;9.152;2023-02-23T16:24:54;1.60;;;1.50;;
946;SDS011;460;48.734;9.152;2023-02-23T16:27:26;2.43;;;2.23;;
946;SDS011;460;48.734;9.152;2023-02-23T16:29:55;1.40;;;1.30;;